Weather History for Alva, OK

Change the Weather History Date:

Monday, February 4, 2013

  Actual Average Record
Temperature  
Mean Temperature 48 °F -  
Max Temperature 60 °F 50 °F 74 °F (1953)
Min Temperature 35 °F 26 °F -6 °F (1989)
Degree Days  
Heating Degree Days 18    
Moisture  
Dew Point 27 °F    
Average Humidity 46    
Maximum Humidity 70    
Minimum Humidity 25    
Precipitation  
Precipitation 0.00 in - - ()
Sea Level Pressure  
Sea Level Pressure 29.91 in    
Wind  
Wind Speed 10 mph (NE)    
Max Wind Speed 17 mph    
Max Gust Speed 24 mph    
Visibility 10 miles    
Events      
Averages and records for this station are not official NWS values.
T = Trace of Precipitation, MM = Missing Value Source: NWS Daily Summary

Daily Weather History Graph

Daily Weather History Graph

Search for Another Location

Airport:

Trip Planner

Search our weather history database for the weather conditions in past years. The results will help you decide how hot, cold, wet, or windy it might be!

Date:

Astronomy

Feb. 04, 2013 Rise Set
Actual Time 7:33 AM CST 6:03 PM CST
Civil Twilight 7:06 AM CST 6:30 PM CST
Nautical Twilight 6:36 AM CST 7:01 PM CST
Astronomical Twilight 6:05 AM CST 7:32 PM CST
Moon 2:09 AM CST (2/4) 12:31 PM CST (2/4)
Length of Visible Light 11h 24m
Length of Day
10h 29m
Last Quarter, 37% of the Moon is Illuminated
Feb 4
Last Quarter
Feb 10
New
Feb 17
First Quarter
Feb 25
Full
Mar 4
Last Quarter

Hourly Weather History & Observations

Time (CST) Temp. Windchill Dew Point Humidity Pressure Visibility Wind Dir Wind Speed Gust Speed Precip Events Conditions
12:10 AM 46.4 °F 40.7 °F 32.0 °F 57% 29.83 in 10.0 mi South 12.7 mph - N/A   Mostly Cloudy
12:30 AM 46.4 °F 41.1 °F 32.0 °F 57% 29.83 in 10.0 mi South 11.5 mph - N/A   Mostly Cloudy
12:50 AM 46.4 °F 41.5 °F 32.0 °F 57% 29.83 in 10.0 mi South 10.4 mph - N/A   Mostly Cloudy
1:10 AM 44.6 °F 39.2 °F 32.0 °F 61% 29.82 in 10.0 mi South 10.4 mph - N/A   Mostly Cloudy
1:30 AM 44.6 °F 39.2 °F 32.0 °F 61% 29.81 in 10.0 mi South 10.4 mph - N/A   Mostly Cloudy
1:50 AM 44.6 °F 39.7 °F 32.0 °F 61% 29.81 in 10.0 mi South 9.2 mph - N/A   Mostly Cloudy
2:10 AM 44.6 °F 39.7 °F 32.0 °F 61% 29.80 in 10.0 mi South 9.2 mph - N/A   Mostly Cloudy
2:30 AM 44.6 °F 39.7 °F 32.0 °F 61% 29.80 in 10.0 mi South 9.2 mph - N/A   Mostly Cloudy
2:50 AM 44.6 °F 39.7 °F 32.0 °F 61% 29.80 in 10.0 mi South 9.2 mph - N/A   Mostly Cloudy
3:10 AM 42.8 °F 37.5 °F 32.0 °F 66% 29.80 in 10.0 mi South 9.2 mph - N/A   Mostly Cloudy
4:50 AM 42.8 °F 38.0 °F 30.2 °F 61% 29.83 in 10.0 mi North 8.1 mph - N/A   Scattered Clouds
5:10 AM 42.8 °F 38.6 °F 30.2 °F 61% 29.82 in 10.0 mi NNW 6.9 mph - N/A   Partly Cloudy
5:30 AM 42.8 °F 38.6 °F 28.4 °F 57% 29.83 in 10.0 mi North 6.9 mph - N/A   Partly Cloudy
5:50 AM 41.0 °F 35.8 °F 28.4 °F 61% 29.84 in 10.0 mi North 8.1 mph - N/A   Partly Cloudy
6:10 AM 41.0 °F - 28.4 °F 61% 29.85 in 10.0 mi Calm Calm - N/A   Clear
6:30 AM 39.2 °F 33.6 °F 28.4 °F 65% 29.86 in 10.0 mi NNW 8.1 mph - N/A   Clear
6:50 AM 37.4 °F 32.8 °F 26.6 °F 65% 29.86 in 10.0 mi NNW 5.8 mph - N/A   Clear
7:10 AM 35.6 °F 29.2 °F 26.6 °F 70% 29.87 in 10.0 mi North 8.1 mph - N/A   Clear
7:30 AM 37.4 °F 30.3 °F 26.6 °F 65% 29.88 in 10.0 mi North 10.4 mph - N/A   Clear
8:10 AM 41.0 °F 33.9 °F 26.6 °F 57% 29.91 in 10.0 mi North 12.7 mph - N/A   Clear
8:30 AM 41.0 °F 33.9 °F 26.6 °F 57% 29.92 in 10.0 mi North 12.7 mph - N/A   Clear
8:50 AM 42.8 °F 35.8 °F 26.6 °F 53% 29.93 in 10.0 mi North 13.8 mph - N/A   Clear
9:10 AM 44.6 °F 37.8 °F 26.6 °F 49% 29.93 in 10.0 mi North 15.0 mph 18.4 mph N/A   Clear
9:50 AM 48.2 °F - 26.6 °F 43% 29.94 in 10.0 mi NNE 15.0 mph - N/A   Clear
10:10 AM 48.2 °F - 26.6 °F 43% 29.95 in 10.0 mi NNE 16.1 mph 23.0 mph N/A   Clear
10:30 AM 50.0 °F - 26.6 °F 40% 29.94 in 10.0 mi NNE 17.3 mph 24.2 mph N/A   Clear
10:50 AM 51.8 °F - 26.6 °F 38% 29.95 in 10.0 mi NNE 16.1 mph 20.7 mph N/A   Clear
11:10 AM 53.6 °F - 26.6 °F 35% 29.95 in 10.0 mi NNE 16.1 mph - N/A   Clear
11:30 AM 53.6 °F - 26.6 °F 35% 29.95 in 10.0 mi NNE 15.0 mph 21.9 mph N/A   Clear
11:50 AM 55.4 °F - 26.6 °F 33% 29.95 in 10.0 mi NNE 12.7 mph 20.7 mph N/A   Clear
12:10 PM 55.4 °F - 26.6 °F 33% 29.95 in 10.0 mi NNE 11.5 mph 18.4 mph N/A   Clear
12:30 PM 57.2 °F - 26.6 °F 31% 29.95 in 10.0 mi North 11.5 mph 18.4 mph N/A   Clear
12:50 PM 57.2 °F - 26.6 °F 31% 29.94 in 10.0 mi North 11.5 mph - N/A   Clear
1:10 PM 57.2 °F - 26.6 °F 31% 29.93 in 10.0 mi NNE 12.7 mph 18.4 mph N/A   Clear
1:30 PM 57.2 °F - 26.6 °F 31% 29.93 in 10.0 mi NNE 9.2 mph - N/A   Clear
1:50 PM 59.0 °F - 26.6 °F 29% 29.92 in 10.0 mi North 10.4 mph 18.4 mph N/A   Clear
2:10 PM 59.0 °F - 26.6 °F 29% 29.91 in 10.0 mi NNE 12.7 mph 16.1 mph N/A   Clear
2:30 PM 59.0 °F - 24.8 °F 27% 29.91 in 10.0 mi NNE 10.4 mph - N/A   Clear
2:50 PM 59.0 °F - 26.6 °F 29% 29.91 in 10.0 mi North 8.1 mph - N/A   Clear
3:10 PM 59.0 °F - 26.6 °F 29% 29.91 in 10.0 mi NNE 11.5 mph - N/A   Clear
3:30 PM 59.0 °F - 24.8 °F 27% 29.91 in 10.0 mi North 10.4 mph - N/A   Clear
3:50 PM 60.8 °F - 24.8 °F 25% 29.91 in 10.0 mi North 8.1 mph - N/A   Clear
4:10 PM 59.0 °F - 24.8 °F 27% 29.91 in 10.0 mi NNE 11.5 mph 17.3 mph N/A   Clear
4:30 PM 59.0 °F - 24.8 °F 27% 29.91 in 10.0 mi NNE 11.5 mph - N/A   Clear
4:50 PM 59.0 °F - 24.8 °F 27% 29.91 in 10.0 mi NE 9.2 mph - N/A   Clear
5:10 PM 57.2 °F - 24.8 °F 29% 29.91 in 10.0 mi NNE 8.1 mph - N/A   Clear
5:30 PM 55.4 °F - 24.8 °F 31% 29.91 in 9.0 mi NE 6.9 mph - N/A   Clear
5:50 PM 53.6 °F - 24.8 °F 33% 29.91 in 7.0 mi NE 6.9 mph - N/A   Clear
6:10 PM 50.0 °F - 24.8 °F 37% 29.92 in 10.0 mi NE 4.6 mph - N/A   Clear
6:30 PM 50.0 °F - 24.8 °F 37% 29.93 in 9.0 mi NE 5.8 mph - N/A   Clear
6:50 PM 48.2 °F - 24.8 °F 40% 29.93 in 8.0 mi ENE 5.8 mph - N/A   Clear
7:10 PM 48.2 °F - 24.8 °F 40% 29.93 in 10.0 mi East 5.8 mph - N/A   Clear
7:30 PM 48.2 °F - 24.8 °F 40% 29.93 in 10.0 mi East 5.8 mph - N/A   Clear
7:50 PM 46.4 °F 43.5 °F 24.8 °F 43% 29.94 in 10.0 mi East 5.8 mph - N/A   Clear
8:10 PM 44.6 °F 40.7 °F 24.8 °F 46% 29.94 in 10.0 mi East 6.9 mph - N/A   Clear
8:30 PM 44.6 °F 40.2 °F 24.8 °F 46% 29.95 in 10.0 mi East 8.1 mph - N/A   Clear
8:50 PM 44.6 °F 40.2 °F 24.8 °F 46% 29.96 in 10.0 mi East 8.1 mph - N/A   Clear
9:10 PM 42.8 °F 38.6 °F 24.8 °F 49% 29.96 in 10.0 mi ESE 6.9 mph - N/A   Clear
9:30 PM 41.0 °F 35.8 °F 24.8 °F 53% 29.96 in 10.0 mi East 8.1 mph - N/A   Clear
9:50 PM 41.0 °F 36.4 °F 24.8 °F 53% 29.97 in 10.0 mi East 6.9 mph - N/A   Clear
10:10 PM 37.4 °F - 24.8 °F 60% 29.98 in 10.0 mi Calm Calm - N/A   Clear
10:30 PM 39.2 °F 37.0 °F 24.8 °F 56% 29.97 in 10.0 mi East 3.5 mph - N/A   Clear
10:50 PM 39.2 °F 35.9 °F 24.8 °F 56% 29.97 in 10.0 mi East 4.6 mph - N/A   Clear
11:10 PM 39.2 °F 35.0 °F 24.8 °F 56% 29.96 in 10.0 mi East 5.8 mph - N/A   Clear
11:30 PM 39.2 °F 35.0 °F 26.6 °F 61% 29.96 in 10.0 mi East 5.8 mph - N/A   Clear
11:50 PM 37.4 °F 34.9 °F 26.6 °F 65% 29.96 in 10.0 mi SE 3.5 mph - N/A   Clear